Barfleur — FNIE — position and weather

sailwx.info

Track history (hours):
 
Tides and Currents Weather Stations Pressure Air Temp Water Temp Dewpoint Dewpoint Depression Visibility Wind Speed Wind Dir Waves Ship Positions

Barfleur

Operator: Brittany Ferries

Last reported at 2016-Dec-06 07:33 UTC. Time now 2016-Dec-06 08:17 UTC.
Position N 50°42' W 001°59'.

Length 158 m; draft 5 m.

Type: Passenger vessel. MMSI: 227289000.

Date/timePositionNaut miles runAvg speedWind from/ knotsBaromVisibWave heightAir tempDewpointWater temp
2016-Dec-06 07:33N 50°42' W 001°59'0 0.0
2016-Dec-06 06:33N 50°42' W 001°59'0 0.0
2016-Dec-06 05:33N 50°42' W 001°59'0 0.0
2016-Dec-06 04:33N 50°42' W 001°59'0 0.0
2016-Dec-06 03:33N 50°42' W 001°59'0 0.0
2016-Dec-06 02:33N 50°42' W 001°59'0 0.0
2016-Dec-06 01:33N 50°42' W 001°59'0 0.0
2016-Dec-06 00:34N 50°42' W 001°59'0 0.0
2016-Dec-05 23:33N 50°42' W 001°59'0 0.0
2016-Dec-05 22:33N 50°42' W 001°59'0 0.0
2016-Dec-05 21:34N 50°42' W 001°59'1211.9
2016-Dec-05 20:34N 50°32' W 001°50'2218.3
2016-Dec-05 19:23N 50°11' W 001°46'1518.1
2016-Dec-05 18:34N 49°56' W 001°44'1716.9
2016-Dec-05 17:33N 49°39' W 001°37'1 0.6
2016-Dec-05 16:33N 49°39' W 001°37'0 0.0
2016-Dec-05 15:33N 49°39' W 001°37'0 0.0
2016-Dec-05 14:34N 49°39' W 001°37'0 0.0
2016-Dec-05 13:33N 49°39' W 001°37'0 0.0
2016-Dec-05 12:34N 49°39' W 001°37'1515.2
2016-Dec-05 11:33N 49°54' W 001°37'1918.6
2016-Dec-05 10:33N 50°12' W 001°44'1818.4
2016-Dec-05 09:33N 50°30' W 001°51'1312.8
2016-Dec-05 08:33N 50°42' W 001°58'1 1.1
2016-Dec-05 07:33N 50°42' W 001°59'0 0.0
2016-Dec-05 06:33N 50°42' W 001°59'0 0.0
2016-Dec-05 05:33N 50°42' W 001°59'0 0.0
2016-Dec-05 04:33N 50°42' W 001°59'0 0.0
2016-Dec-05 03:33N 50°42' W 001°59'0 0.0
2016-Dec-05 02:33N 50°42' W 001°59'0 0.0
2016-Dec-05 01:33N 50°42' W 001°59'0 0.0
2016-Dec-05 00:33N 50°42' W 001°59'0 0.0
2016-Dec-04 23:33N 50°42' W 001°59'0 0.0
2016-Dec-04 22:33N 50°42' W 001°59'0 0.0
2016-Dec-04 21:33N 50°42' W 001°59'1212.2
2016-Dec-04 20:33N 50°32' W 001°51'3617.9
2016-Dec-04 18:33N 49°56' W 001°43'1717.3
2016-Dec-04 17:33N 49°39' W 001°37'1 0.5
2016-Dec-04 16:33N 49°39' W 001°37'0 0.0
2016-Dec-04 15:33N 49°39' W 001°37'0 0.0
2016-Dec-04 14:33N 49°39' W 001°37'0 0.0
2016-Dec-04 13:33N 49°39' W 001°37'0 0.0
2016-Dec-04 12:33N 49°39' W 001°37'1414.4
2016-Dec-04 11:33N 49°53' W 001°39'1717.2
2016-Dec-04 10:34N 50°10' W 001°44'1817.5
2016-Dec-04 09:33N 50°27' W 001°50'1515.4
2016-Dec-04 08:34N 50°42' W 001°57'2 1.5
2016-Dec-04 07:33N 50°42' W 001°59'0 0.0
2016-Dec-04 06:33N 50°42' W 001°59'0 0.0
2016-Dec-04 05:33N 50°42' W 001°59'0 0.0
2016-Dec-04 04:33N 50°42' W 001°59'0 0.0
2016-Dec-04 03:33N 50°42' W 001°59'0 0.0
2016-Dec-04 02:33N 50°42' W 001°59'0 0.0
2016-Dec-04 01:33N 50°42' W 001°59'0 0.0
2016-Dec-04 00:33N 50°42' W 001°59'0 0.0
2016-Dec-03 23:33N 50°42' W 001°59'0 0.0
2016-Dec-03 22:33N 50°42' W 001°59'0 0.0
2016-Dec-03 21:33N 50°42' W 001°59'1211.5
2016-Dec-03 20:33N 50°32' W 001°51'3517.6
2016-Dec-03 18:33N 49°58' W 001°43'1817.7
2016-Dec-03 17:34N 49°40' W 001°38'2 1.7
2016-Dec-03 16:33N 49°39' W 001°37'0 0.0
2016-Dec-03 15:33N 49°39' W 001°37'0 0.0
2016-Dec-03 14:34N 49°39' W 001°37'0 0.0
2016-Dec-03 13:33N 49°39' W 001°37'1211.7
2016-Dec-03 12:34N 49°51' W 001°38'1918.5
2016-Dec-03 11:33N 50°09' W 001°44'1918.6
2016-Dec-03 10:33N 50°27' W 001°50'1615.7
2016-Dec-03 09:33N 50°42' W 001°57'2 1.6
2016-Dec-03 08:33N 50°42' W 001°59'0 0.0
2016-Dec-03 07:33N 50°42' W 001°59'0 0.0
2016-Dec-03 06:33N 50°42' W 001°59'0 0.0
2016-Dec-03 05:33N 50°42' W 001°59'0 0.0
2016-Dec-03 04:33N 50°42' W 001°59'0 0.0
2016-Dec-03 03:33N 50°42' W 001°59'0 0.0
2016-Dec-03 02:33N 50°42' W 001°59'0 0.0
2016-Dec-03 01:33N 50°42' W 001°59'0 0.0
2016-Dec-03 00:33N 50°42' W 001°59'0 0.0
2016-Dec-02 23:33N 50°42' W 001°59'0 0.0
2016-Dec-02 22:33N 50°42' W 001°59'0 0.0
2016-Dec-02 21:33N 50°42' W 001°59'1211.6
2016-Dec-02 20:33N 50°32' W 001°51'3517.6
2016-Dec-02 18:34N 49°57' W 001°43'1817.7
2016-Dec-02 17:33N 49°40' W 001°38'1 1.3
2016-Dec-02 16:33N 49°39' W 001°37'0 0.0
2016-Dec-02 15:33N 49°39' W 001°37'0 0.0
2016-Dec-02 14:33N 49°39' W 001°37'0 0.0
2016-Dec-02 13:33N 49°39' W 001°37'0 0.0
2016-Dec-02 12:33N 49°39' W 001°37'1414.2
2016-Dec-02 11:34N 49°53' W 001°39'1717.1
2016-Dec-02 10:33N 50°10' W 001°44'1817.3
2016-Dec-02 09:33N 50°27' W 001°49'1515.6
2016-Dec-02 08:33N 50°42' W 001°57'2 1.7
2016-Dec-02 07:33N 50°42' W 001°59'0 0.0
2016-Dec-02 06:33N 50°42' W 001°59'0 0.0
2016-Dec-02 05:33N 50°42' W 001°59'0 0.0
2016-Dec-02 04:33N 50°42' W 001°59'0 0.0
2016-Dec-02 03:33N 50°42' W 001°59'0 0.0
2016-Dec-02 02:33N 50°42' W 001°59'0 0.0
2016-Dec-02 01:33N 50°42' W 001°59'0 0.0
2016-Dec-02 00:33N 50°42' W 001°59'0 0.0
2016-Dec-01 23:33N 50°42' W 001°59'0 0.0
2016-Dec-01 22:33N 50°42' W 001°59'0 0.1
2016-Dec-01 21:34N 50°42' W 001°60'1313.2
2016-Dec-01 20:33N 50°31' W 001°50'2318.2
2016-Dec-01 19:17N 50°07' W 001°45'1318.5
2016-Dec-01 18:33N 49°54' W 001°44'1615.8
2016-Dec-01 17:34N 49°39' W 001°37'0 0.2
2016-Dec-01 16:33N 49°39' W 001°37'0 0.0
2016-Dec-01 15:34N 49°39' W 001°37'0 0.0
2016-Dec-01 14:33N 49°39' W 001°37'0 0.0
2016-Dec-01 13:33N 49°39' W 001°37'1 0.7
2016-Dec-01 12:33N 49°40' W 001°37'1817.6
2016-Dec-01 11:33N 49°57' W 001°40'1919.0
2016-Dec-01 10:32N 50°16' W 001°47'1918.8
2016-Dec-01 09:33N 50°34' W 001°53'9 9.3
2016-Dec-01 08:33N 50°42' W 001°59'0 0.0
2016-Dec-01 07:33N 50°42' W 001°59'1 0.8
2016-Dec-01 06:33N 50°42' W 001°58'1313.4
2016-Dec-01 05:33N 50°29' W 001°53'2814.2
2016-Dec-01 03:33N 50°01' W 001°47'1414.0
2016-Dec-01 02:33N 49°47' W 001°45'5 4.6
2016-Dec-01 01:34N 49°44' W 001°39'3 2.5
2016-Dec-01 00:33N 49°44' W 001°35'1 1.4
2016-Nov-30 23:33N 49°44' W 001°33'0 0.3
2016-Nov-30 22:33N 49°44' W 001°33'5 5.1
2016-Nov-30 21:33N 49°40' W 001°38'2 1.7
2016-Nov-30 20:33N 49°39' W 001°37'0 0.0
2016-Nov-30 19:33N 49°39' W 001°37'0 0.0
2016-Nov-30 18:34N 49°39' W 001°37'0 0.0
2016-Nov-30 17:34N 49°39' W 001°37'0 0.0
2016-Nov-30 16:33N 49°39' W 001°37'0 0.0
2016-Nov-30 15:33N 49°39' W 001°37'0 0.0
2016-Nov-30 14:33N 49°39' W 001°37'0 0.0
2016-Nov-30 13:33N 49°39' W 001°37'0 0.0
2016-Nov-30 12:33N 49°39' W 001°37'1414.2
2016-Nov-30 11:33N 49°52' W 001°47'1818.3
2016-Nov-30 10:33N 50°10' W 001°48'1918.8
2016-Nov-30 09:33N 50°29' W 001°53'1414.3
2016-Nov-30 08:33N 50°42' W 001°58'1 0.6
2016-Nov-30 07:34N 50°42' W 001°59'1 0.8
2016-Nov-30 06:33N 50°42' W 001°58'1413.7
2016-Nov-30 05:34N 50°29' W 001°51'2014.6
2016-Nov-30 04:11N 50°09' W 001°45'914.3
2016-Nov-30 03:33N 50°01' W 001°44'1313.4
2016-Nov-30 02:33N 49°47' W 001°46'5 4.6
2016-Nov-30 01:34N 49°43' W 001°43'4 3.7
2016-Nov-30 00:34N 49°43' W 001°37'3 2.8
2016-Nov-29 23:33N 49°43' W 001°33'1 1.0
2016-Nov-29 22:33N 49°43' W 001°32'5 4.8
2016-Nov-29 21:33N 49°39' W 001°37'0 0.5
2016-Nov-29 20:33N 49°39' W 001°37'0 0.0
2016-Nov-29 19:33N 49°39' W 001°37'0 0.0
2016-Nov-29 18:33N 49°39' W 001°37'0 0.0
2016-Nov-29 17:33N 49°39' W 001°37'0 0.0
2016-Nov-29 16:33N 49°39' W 001°37'0 0.0
2016-Nov-29 15:33N 49°39' W 001°37'0 0.0
2016-Nov-29 14:33N 49°39' W 001°37'0 0.0
2016-Nov-29 13:33N 49°39' W 001°37'0 0.0
2016-Nov-29 12:33N 49°39' W 001°37'1313.4
2016-Nov-29 11:34N 49°52' W 001°43'1918.5
2016-Nov-29 10:34N 50°10' W 001°49'1918.7
2016-Nov-29 09:33N 50°29' W 001°52'1414.6
2016-Nov-29 08:33N 50°42' W 001°59'1 0.5
2016-Nov-29 07:33N 50°42' W 001°59'1 1.1
2016-Nov-29 06:33N 50°42' W 001°58'1414.3
2016-Nov-29 05:33N 50°28' W 001°51'1413.5
2016-Nov-29 04:32N 50°15' W 001°48'1413.9
2016-Nov-29 03:34N 50°01' W 001°49'1413.6
2016-Nov-29 02:33N 49°48' W 001°47'6 5.6
2016-Nov-29 01:34N 49°43' W 001°42'2 2.2
2016-Nov-29 00:34N 49°42' W 001°45'4 4.1
2016-Nov-28 23:34N 49°43' W 001°39'4 3.6
2016-Nov-28 22:33N 49°43' W 001°33'5 4.6
2016-Nov-28 21:33N 49°40' W 001°38'2 1.6
2016-Nov-28 20:33N 49°39' W 001°37'0 0.0
2016-Nov-28 19:34N 49°39' W 001°37'0 0.0
2016-Nov-28 18:33N 49°39' W 001°37'0 0.0
2016-Nov-28 17:33N 49°39' W 001°37'0 0.0
2016-Nov-28 16:33N 49°39' W 001°37'0 0.0
2016-Nov-28 15:33N 49°39' W 001°37'0 0.0
2016-Nov-28 14:33N 49°39' W 001°37'0 0.0
2016-Nov-28 13:33N 49°39' W 001°37'0 0.0
2016-Nov-28 12:33N 49°39' W 001°37'0 0.0
2016-Nov-28 11:33N 49°39' W 001°37'0 0.0
2016-Nov-28 10:34N 49°39' W 001°37'0 0.0
2016-Nov-28 09:33N 49°39' W 001°37'0 0.0
2016-Nov-28 08:33N 49°39' W 001°37'0 0.0
2016-Nov-28 07:33N 49°39' W 001°37'0 0.0
2016-Nov-28 06:33N 49°39' W 001°37'0 0.0
2016-Nov-28 05:33N 49°39' W 001°37'0 0.0
2016-Nov-28 04:34N 49°39' W 001°37'0 0.0
2016-Nov-28 03:33N 49°39' W 001°37'0 0.0
2016-Nov-28 02:33N 49°39' W 001°37'0 0.0
2016-Nov-28 01:33N 49°39' W 001°37'0 0.0
2016-Nov-28 00:33N 49°39' W 001°37'0 0.0
2016-Nov-27 23:33N 49°39' W 001°37'0 0.0
2016-Nov-27 22:33N 49°39' W 001°37'0 0.0
2016-Nov-27 21:33N 49°39' W 001°37'0 0.0
2016-Nov-27 20:33N 49°39' W 001°37'0 0.0
2016-Nov-27 19:33N 49°39' W 001°37'0 0.1
2016-Nov-27 18:33N 49°39' W 001°37'0 0.0
2016-Nov-27 17:33N 49°39' W 001°37'0 0.0
2016-Nov-27 16:33N 49°39' W 001°37'0 0.0
2016-Nov-27 15:33N 49°39' W 001°37'0 0.0
2016-Nov-27 14:33N 49°39' W 001°37'0 0.0
2016-Nov-27 13:33N 49°39' W 001°37'0 0.0
2016-Nov-27 12:33N 49°39' W 001°37'0 0.0
2016-Nov-27 11:33N 49°39' W 001°37'0 0.0
2016-Nov-27 10:33N 49°39' W 001°37'0 0.0
2016-Nov-27 09:33N 49°39' W 001°37'0 0.0
2016-Nov-27 08:33N 49°39' W 001°37'0 0.0
2016-Nov-27 07:34N 49°39' W 001°37'0 0.0
2016-Nov-27 06:33N 49°39' W 001°37'0 0.0
2016-Nov-27 05:33N 49°39' W 001°37'0 0.0
2016-Nov-27 04:33N 49°39' W 001°37'0 0.0
2016-Nov-27 03:33N 49°39' W 001°37'0 0.0
2016-Nov-27 02:33N 49°39' W 001°37'0 0.0
2016-Nov-27 01:34N 49°39' W 001°37'0 0.0
2016-Nov-27 00:34N 49°39' W 001°37'0 0.0
2016-Nov-26 23:33N 49°39' W 001°37'0 0.0
2016-Nov-26 22:33N 49°39' W 001°37'0 0.0
2016-Nov-26 21:33N 49°39' W 001°37'0 0.0
2016-Nov-26 20:33N 49°39' W 001°37'0 0.0
2016-Nov-26 19:33N 49°39' W 001°37'0 0.0
2016-Nov-26 18:33N 49°39' W 001°37'3 2.9
2016-Nov-26 17:34N 49°41' W 001°40'1212.4
2016-Nov-26 16:33N 49°53' W 001°33'6 5.5
2016-Nov-26 15:34N 49°51' W 001°25'1312.6
2016-Nov-26 14:34N 49°52' W 001°45'7 6.5
2016-Nov-26 13:33N 49°48' W 001°36'9 9.0
2016-Nov-26 12:33N 49°57' W 001°37'1615.8
2016-Nov-26 11:33N 49°51' W 001°15'5 4.6
2016-Nov-26 10:33N 49°50' W 001°22'1313.2
2016-Nov-26 09:34N 49°44' W 001°40'6 5.7
2016-Nov-26 08:33N 49°39' W 001°37'0 0.0
2016-Nov-26 07:34N 49°39' W 001°37'  
Track history (hours):
 
Tides and Currents Weather Stations Pressure Air Temp Water Temp Dewpoint Dewpoint Depression Visibility Wind Speed Wind Dir Waves Ship Positions

Barfleur

Operator: Brittany Ferries

Last reported at 2016-Dec-06 07:33 UTC. Time now 2016-Dec-06 08:17 UTC.
Position N 50°42' W 001°59'.

Length 158 m; draft 5 m.

Type: Passenger vessel. MMSI: 227289000.

Date/timePositionNaut miles runAvg speedWind from/ knotsBaromVisibWave heightAir tempDewpointWater temp
2016-Dec-06 07:33N 50°42' W 001°59'0 0.0
2016-Dec-06 06:33N 50°42' W 001°59'0 0.0
2016-Dec-06 05:33N 50°42' W 001°59'0 0.0
2016-Dec-06 04:33N 50°42' W 001°59'0 0.0
2016-Dec-06 03:33N 50°42' W 001°59'0 0.0
2016-Dec-06 02:33N 50°42' W 001°59'0 0.0
2016-Dec-06 01:33N 50°42' W 001°59'0 0.0
2016-Dec-06 00:34N 50°42' W 001°59'0 0.0
2016-Dec-05 23:33N 50°42' W 001°59'0 0.0
2016-Dec-05 22:33N 50°42' W 001°59'0 0.0
2016-Dec-05 21:34N 50°42' W 001°59'1211.9
2016-Dec-05 20:34N 50°32' W 001°50'2218.3
2016-Dec-05 19:23N 50°11' W 001°46'1518.1
2016-Dec-05 18:34N 49°56' W 001°44'1716.9
2016-Dec-05 17:33N 49°39' W 001°37'1 0.6
2016-Dec-05 16:33N 49°39' W 001°37'0 0.0
2016-Dec-05 15:33N 49°39' W 001°37'0 0.0
2016-Dec-05 14:34N 49°39' W 001°37'0 0.0
2016-Dec-05 13:33N 49°39' W 001°37'0 0.0
2016-Dec-05 12:34N 49°39' W 001°37'1515.2
2016-Dec-05 11:33N 49°54' W 001°37'1918.6
2016-Dec-05 10:33N 50°12' W 001°44'1818.4
2016-Dec-05 09:33N 50°30' W 001°51'1312.8
2016-Dec-05 08:33N 50°42' W 001°58'1 1.1
2016-Dec-05 07:33N 50°42' W 001°59'0 0.0
2016-Dec-05 06:33N 50°42' W 001°59'0 0.0
2016-Dec-05 05:33N 50°42' W 001°59'0 0.0
2016-Dec-05 04:33N 50°42' W 001°59'0 0.0
2016-Dec-05 03:33N 50°42' W 001°59'0 0.0
2016-Dec-05 02:33N 50°42' W 001°59'0 0.0
2016-Dec-05 01:33N 50°42' W 001°59'0 0.0
2016-Dec-05 00:33N 50°42' W 001°59'0 0.0
2016-Dec-04 23:33N 50°42' W 001°59'0 0.0
2016-Dec-04 22:33N 50°42' W 001°59'0 0.0
2016-Dec-04 21:33N 50°42' W 001°59'1212.2
2016-Dec-04 20:33N 50°32' W 001°51'3617.9
2016-Dec-04 18:33N 49°56' W 001°43'1717.3
2016-Dec-04 17:33N 49°39' W 001°37'1 0.5
2016-Dec-04 16:33N 49°39' W 001°37'0 0.0
2016-Dec-04 15:33N 49°39' W 001°37'0 0.0
2016-Dec-04 14:33N 49°39' W 001°37'0 0.0
2016-Dec-04 13:33N 49°39' W 001°37'0 0.0
2016-Dec-04 12:33N 49°39' W 001°37'1414.4
2016-Dec-04 11:33N 49°53' W 001°39'1717.2
2016-Dec-04 10:34N 50°10' W 001°44'1817.5
2016-Dec-04 09:33N 50°27' W 001°50'1515.4
2016-Dec-04 08:34N 50°42' W 001°57'2 1.5
2016-Dec-04 07:33N 50°42' W 001°59'0 0.0
2016-Dec-04 06:33N 50°42' W 001°59'0 0.0
2016-Dec-04 05:33N 50°42' W 001°59'0 0.0
2016-Dec-04 04:33N 50°42' W 001°59'0 0.0
2016-Dec-04 03:33N 50°42' W 001°59'0 0.0
2016-Dec-04 02:33N 50°42' W 001°59'0 0.0
2016-Dec-04 01:33N 50°42' W 001°59'0 0.0
2016-Dec-04 00:33N 50°42' W 001°59'0 0.0
2016-Dec-03 23:33N 50°42' W 001°59'0 0.0
2016-Dec-03 22:33N 50°42' W 001°59'0 0.0
2016-Dec-03 21:33N 50°42' W 001°59'1211.5
2016-Dec-03 20:33N 50°32' W 001°51'3517.6
2016-Dec-03 18:33N 49°58' W 001°43'1817.7
2016-Dec-03 17:34N 49°40' W 001°38'2 1.7
2016-Dec-03 16:33N 49°39' W 001°37'0 0.0
2016-Dec-03 15:33N 49°39' W 001°37'0 0.0
2016-Dec-03 14:34N 49°39' W 001°37'0 0.0
2016-Dec-03 13:33N 49°39' W 001°37'1211.7
2016-Dec-03 12:34N 49°51' W 001°38'1918.5
2016-Dec-03 11:33N 50°09' W 001°44'1918.6
2016-Dec-03 10:33N 50°27' W 001°50'1615.7
2016-Dec-03 09:33N 50°42' W 001°57'2 1.6
2016-Dec-03 08:33N 50°42' W 001°59'0 0.0
2016-Dec-03 07:33N 50°42' W 001°59'0 0.0
2016-Dec-03 06:33N 50°42' W 001°59'0 0.0
2016-Dec-03 05:33N 50°42' W 001°59'0 0.0
2016-Dec-03 04:33N 50°42' W 001°59'0 0.0
2016-Dec-03 03:33N 50°42' W 001°59'0 0.0
2016-Dec-03 02:33N 50°42' W 001°59'0 0.0
2016-Dec-03 01:33N 50°42' W 001°59'0 0.0
2016-Dec-03 00:33N 50°42' W 001°59'0 0.0
2016-Dec-02 23:33N 50°42' W 001°59'0 0.0
2016-Dec-02 22:33N 50°42' W 001°59'0 0.0
2016-Dec-02 21:33N 50°42' W 001°59'1211.6
2016-Dec-02 20:33N 50°32' W 001°51'3517.6
2016-Dec-02 18:34N 49°57' W 001°43'1817.7
2016-Dec-02 17:33N 49°40' W 001°38'1 1.3
2016-Dec-02 16:33N 49°39' W 001°37'0 0.0
2016-Dec-02 15:33N 49°39' W 001°37'0 0.0
2016-Dec-02 14:33N 49°39' W 001°37'0 0.0
2016-Dec-02 13:33N 49°39' W 001°37'0 0.0
2016-Dec-02 12:33N 49°39' W 001°37'1414.2
2016-Dec-02 11:34N 49°53' W 001°39'1717.1
2016-Dec-02 10:33N 50°10' W 001°44'1817.3
2016-Dec-02 09:33N 50°27' W 001°49'1515.6
2016-Dec-02 08:33N 50°42' W 001°57'2 1.7
2016-Dec-02 07:33N 50°42' W 001°59'0 0.0
2016-Dec-02 06:33N 50°42' W 001°59'0 0.0
2016-Dec-02 05:33N 50°42' W 001°59'0 0.0
2016-Dec-02 04:33N 50°42' W 001°59'0 0.0
2016-Dec-02 03:33N 50°42' W 001°59'0 0.0
2016-Dec-02 02:33N 50°42' W 001°59'0 0.0
2016-Dec-02 01:33N 50°42' W 001°59'0 0.0
2016-Dec-02 00:33N 50°42' W 001°59'0 0.0
2016-Dec-01 23:33N 50°42' W 001°59'0 0.0
2016-Dec-01 22:33N 50°42' W 001°59'0 0.1
2016-Dec-01 21:34N 50°42' W 001°60'1313.2
2016-Dec-01 20:33N 50°31' W 001°50'2318.2
2016-Dec-01 19:17N 50°07' W 001°45'1318.5
2016-Dec-01 18:33N 49°54' W 001°44'1615.8
2016-Dec-01 17:34N 49°39' W 001°37'0 0.2
2016-Dec-01 16:33N 49°39' W 001°37'0 0.0
2016-Dec-01 15:34N 49°39' W 001°37'0 0.0
2016-Dec-01 14:33N 49°39' W 001°37'0 0.0
2016-Dec-01 13:33N 49°39' W 001°37'1 0.7
2016-Dec-01 12:33N 49°40' W 001°37'1817.6
2016-Dec-01 11:33N 49°57' W 001°40'1919.0
2016-Dec-01 10:32N 50°16' W 001°47'1918.8
2016-Dec-01 09:33N 50°34' W 001°53'9 9.3
2016-Dec-01 08:33N 50°42' W 001°59'0 0.0
2016-Dec-01 07:33N 50°42' W 001°59'1 0.8
2016-Dec-01 06:33N 50°42' W 001°58'1313.4
2016-Dec-01 05:33N 50°29' W 001°53'2814.2
2016-Dec-01 03:33N 50°01' W 001°47'1414.0
2016-Dec-01 02:33N 49°47' W 001°45'5 4.6
2016-Dec-01 01:34N 49°44' W 001°39'3 2.5
2016-Dec-01 00:33N 49°44' W 001°35'1 1.4
2016-Nov-30 23:33N 49°44' W 001°33'0 0.3
2016-Nov-30 22:33N 49°44' W 001°33'5 5.1
2016-Nov-30 21:33N 49°40' W 001°38'2 1.7
2016-Nov-30 20:33N 49°39' W 001°37'0 0.0
2016-Nov-30 19:33N 49°39' W 001°37'0 0.0
2016-Nov-30 18:34N 49°39' W 001°37'0 0.0
2016-Nov-30 17:34N 49°39' W 001°37'0 0.0
2016-Nov-30 16:33N 49°39' W 001°37'0 0.0
2016-Nov-30 15:33N 49°39' W 001°37'0 0.0
2016-Nov-30 14:33N 49°39' W 001°37'0 0.0
2016-Nov-30 13:33N 49°39' W 001°37'0 0.0
2016-Nov-30 12:33N 49°39' W 001°37'1414.2
2016-Nov-30 11:33N 49°52' W 001°47'1818.3
2016-Nov-30 10:33N 50°10' W 001°48'1918.8
2016-Nov-30 09:33N 50°29' W 001°53'1414.3
2016-Nov-30 08:33N 50°42' W 001°58'1 0.6
2016-Nov-30 07:34N 50°42' W 001°59'1 0.8
2016-Nov-30 06:33N 50°42' W 001°58'1413.7
2016-Nov-30 05:34N 50°29' W 001°51'2014.6
2016-Nov-30 04:11N 50°09' W 001°45'914.3
2016-Nov-30 03:33N 50°01' W 001°44'1313.4
2016-Nov-30 02:33N 49°47' W 001°46'5 4.6
2016-Nov-30 01:34N 49°43' W 001°43'4 3.7
2016-Nov-30 00:34N 49°43' W 001°37'3 2.8
2016-Nov-29 23:33N 49°43' W 001°33'1 1.0
2016-Nov-29 22:33N 49°43' W 001°32'5 4.8
2016-Nov-29 21:33N 49°39' W 001°37'0 0.5
2016-Nov-29 20:33N 49°39' W 001°37'0 0.0
2016-Nov-29 19:33N 49°39' W 001°37'0 0.0
2016-Nov-29 18:33N 49°39' W 001°37'0 0.0
2016-Nov-29 17:33N 49°39' W 001°37'0 0.0
2016-Nov-29 16:33N 49°39' W 001°37'0 0.0
2016-Nov-29 15:33N 49°39' W 001°37'0 0.0
2016-Nov-29 14:33N 49°39' W 001°37'0 0.0
2016-Nov-29 13:33N 49°39' W 001°37'0 0.0
2016-Nov-29 12:33N 49°39' W 001°37'1313.4
2016-Nov-29 11:34N 49°52' W 001°43'1918.5
2016-Nov-29 10:34N 50°10' W 001°49'1918.7
2016-Nov-29 09:33N 50°29' W 001°52'1414.6
2016-Nov-29 08:33N 50°42' W 001°59'1 0.5
2016-Nov-29 07:33N 50°42' W 001°59'1 1.1
2016-Nov-29 06:33N 50°42' W 001°58'1414.3
2016-Nov-29 05:33N 50°28' W 001°51'1413.5
2016-Nov-29 04:32N 50°15' W 001°48'1413.9
2016-Nov-29 03:34N 50°01' W 001°49'1413.6
2016-Nov-29 02:33N 49°48' W 001°47'6 5.6
2016-Nov-29 01:34N 49°43' W 001°42'2 2.2
2016-Nov-29 00:34N 49°42' W 001°45'4 4.1
2016-Nov-28 23:34N 49°43' W 001°39'4 3.6
2016-Nov-28 22:33N 49°43' W 001°33'5 4.6
2016-Nov-28 21:33N 49°40' W 001°38'2 1.6
2016-Nov-28 20:33N 49°39' W 001°37'0 0.0
2016-Nov-28 19:34N 49°39' W 001°37'0 0.0
2016-Nov-28 18:33N 49°39' W 001°37'0 0.0
2016-Nov-28 17:33N 49°39' W 001°37'0 0.0
2016-Nov-28 16:33N 49°39' W 001°37'0 0.0
2016-Nov-28 15:33N 49°39' W 001°37'0 0.0
2016-Nov-28 14:33N 49°39' W 001°37'0 0.0
2016-Nov-28 13:33N 49°39' W 001°37'0 0.0
2016-Nov-28 12:33N 49°39' W 001°37'0 0.0
2016-Nov-28 11:33N 49°39' W 001°37'0 0.0
2016-Nov-28 10:34N 49°39' W 001°37'0 0.0
2016-Nov-28 09:33N 49°39' W 001°37'0 0.0
2016-Nov-28 08:33N 49°39' W 001°37'0 0.0
2016-Nov-28 07:33N 49°39' W 001°37'0 0.0
2016-Nov-28 06:33N 49°39' W 001°37'0 0.0
2016-Nov-28 05:33N 49°39' W 001°37'0 0.0
2016-Nov-28 04:34N 49°39' W 001°37'0 0.0
2016-Nov-28 03:33N 49°39' W 001°37'0 0.0
2016-Nov-28 02:33N 49°39' W 001°37'0 0.0
2016-Nov-28 01:33N 49°39' W 001°37'0 0.0
2016-Nov-28 00:33N 49°39' W 001°37'0 0.0
2016-Nov-27 23:33N 49°39' W 001°37'0 0.0
2016-Nov-27 22:33N 49°39' W 001°37'0 0.0
2016-Nov-27 21:33N 49°39' W 001°37'0 0.0
2016-Nov-27 20:33N 49°39' W 001°37'0 0.0
2016-Nov-27 19:33N 49°39' W 001°37'0 0.1
2016-Nov-27 18:33N 49°39' W 001°37'0 0.0
2016-Nov-27 17:33N 49°39' W 001°37'0 0.0
2016-Nov-27 16:33N 49°39' W 001°37'0 0.0
2016-Nov-27 15:33N 49°39' W 001°37'0 0.0
2016-Nov-27 14:33N 49°39' W 001°37'0 0.0
2016-Nov-27 13:33N 49°39' W 001°37'0 0.0
2016-Nov-27 12:33N 49°39' W 001°37'0 0.0
2016-Nov-27 11:33N 49°39' W 001°37'0 0.0
2016-Nov-27 10:33N 49°39' W 001°37'0 0.0
2016-Nov-27 09:33N 49°39' W 001°37'0 0.0
2016-Nov-27 08:33N 49°39' W 001°37'0 0.0
2016-Nov-27 07:34N 49°39' W 001°37'0 0.0
2016-Nov-27 06:33N 49°39' W 001°37'0 0.0
2016-Nov-27 05:33N 49°39' W 001°37'0 0.0
2016-Nov-27 04:33N 49°39' W 001°37'0 0.0
2016-Nov-27 03:33N 49°39' W 001°37'0 0.0
2016-Nov-27 02:33N 49°39' W 001°37'0 0.0
2016-Nov-27 01:34N 49°39' W 001°37'0 0.0
2016-Nov-27 00:34N 49°39' W 001°37'0 0.0
2016-Nov-26 23:33N 49°39' W 001°37'0 0.0
2016-Nov-26 22:33N 49°39' W 001°37'0 0.0
2016-Nov-26 21:33N 49°39' W 001°37'0 0.0
2016-Nov-26 20:33N 49°39' W 001°37'0 0.0
2016-Nov-26 19:33N 49°39' W 001°37'0 0.0
2016-Nov-26 18:33N 49°39' W 001°37'3 2.9
2016-Nov-26 17:34N 49°41' W 001°40'1212.4
2016-Nov-26 16:33N 49°53' W 001°33'6 5.5
2016-Nov-26 15:34N 49°51' W 001°25'1312.6
2016-Nov-26 14:34N 49°52' W 001°45'7 6.5
2016-Nov-26 13:33N 49°48' W 001°36'9 9.0
2016-Nov-26 12:33N 49°57' W 001°37'1615.8
2016-Nov-26 11:33N 49°51' W 001°15'5 4.6
2016-Nov-26 10:33N 49°50' W 001°22'1313.2
2016-Nov-26 09:34N 49°44' W 001°40'6 5.7
2016-Nov-26 08:33N 49°39' W 001°37'0 0.0
2016-Nov-26 07:34N 49°39' W 001°37'  

Dump ship's entire track history